Weather at Ouarzazate Airport

Public forecast

Using degrees Celsius for public forecast. Weather courtesy of forecast.io.

Current aviation weather report (METAR) for Ouarzazate Airport

Retrieved 2021/02/25 00:00 UTC (1 hour ago):

GMMZ 250000Z 06005KT CAVOK 12/M06 Q1028 NOSIG

Aviation forecast (TAF) for Ouarzazate Airport

Retrieved 2021-02-25 00:39 UTC (24 minutes ago):

TAF GMMZ 242300Z 2500/2606 05007KT CAVOK BECMG 2523/2602 BKN030